createdAt,value
2019-04-20T00:00:12.830Z,0.00
2019-04-20T00:01:12.573Z,0.00
2019-04-20T00:02:14.252Z,0.00
2019-04-20T00:03:09.921Z,0.00
2019-04-20T00:04:15.596Z,0.00
2019-04-20T00:05:09.896Z,0.00
2019-04-20T00:06:09.224Z,0.00
2019-04-20T00:07:10.091Z,0.00
2019-04-20T00:08:15.009Z,0.00
2019-04-20T00:09:15.814Z,0.00
2019-04-20T00:10:15.232Z,0.00
2019-04-20T00:11:16.334Z,0.00
2019-04-20T00:12:18.956Z,0.00
2019-04-20T00:13:21.596Z,0.00
2019-04-20T00:14:15.939Z,0.00
2019-04-20T00:15:11.074Z,0.00
2019-04-20T00:16:08.786Z,0.00
2019-04-20T00:17:09.523Z,0.00
2019-04-20T00:18:11.476Z,0.00
2019-04-20T00:19:10.506Z,0.00
2019-04-20T00:20:15.544Z,0.00
2019-04-20T00:21:12.952Z,0.00
2019-04-20T00:22:13.273Z,0.00
2019-04-20T00:23:14.580Z,0.00
2019-04-20T00:24:16.970Z,0.00
2019-04-20T00:25:15.500Z,0.00
2019-04-20T00:26:19.482Z,0.00
2019-04-20T00:27:32.744Z,0.00
2019-04-20T00:28:34.066Z,0.00
2019-04-20T00:29:32.130Z,0.00
2019-04-20T00:30:31.540Z,0.00
2019-04-20T00:31:23.256Z,0.00
2019-04-20T00:32:17.650Z,0.00
2019-04-20T00:33:26.992Z,0.00
2019-04-20T00:34:18.067Z,0.00
2019-04-20T00:35:10.476Z,0.00
2019-04-20T00:36:10.047Z,0.00
2019-04-20T00:37:08.835Z,0.00
2019-04-20T00:38:09.756Z,0.00
2019-04-20T00:39:11.382Z,0.00
2019-04-20T00:40:09.806Z,0.00
2019-04-20T00:41:12.002Z,0.00
2019-04-20T00:42:12.866Z,0.00
2019-04-20T00:43:08.757Z,0.00
2019-04-20T00:44:13.307Z,0.00
2019-04-20T00:45:16.191Z,0.00
2019-04-20T00:46:19.613Z,0.00
2019-04-20T00:47:20.084Z,0.00
2019-04-20T00:48:22.664Z,0.00
2019-04-20T00:49:27.583Z,0.00
2019-04-20T00:50:28.270Z,0.00
2019-04-20T00:51:31.223Z,0.00
2019-04-20T00:52:27.616Z,0.00
2019-04-20T00:53:18.208Z,0.00
2019-04-20T00:54:09.591Z,0.00
2019-04-20T00:55:08.425Z,0.00
2019-04-20T00:56:09.871Z,0.00
2019-04-20T00:57:17.691Z,0.00
2019-04-20T00:58:18.981Z,0.00
2019-04-20T00:59:24.079Z,0.00
2019-04-20T01:00:29.951Z,0.00
2019-04-20T01:01:31.143Z,0.00
2019-04-20T01:02:20.992Z,0.00
2019-04-20T01:03:24.754Z,0.00
2019-04-20T01:04:31.144Z,0.00
2019-04-20T01:05:23.169Z,0.00
2019-04-20T01:06:26.903Z,0.00
2019-04-20T01:07:20.337Z,0.00
2019-04-20T01:08:10.065Z,0.00
2019-04-20T01:09:08.279Z,0.00
2019-04-20T01:10:09.131Z,0.00
2019-04-20T01:11:08.273Z,0.00
2019-04-20T01:12:14.798Z,0.00
2019-04-20T01:13:15.163Z,0.00
2019-04-20T01:14:12.281Z,0.00
2019-04-20T01:15:11.775Z,0.00
2019-04-20T01:16:21.374Z,0.00
2019-04-20T01:17:12.063Z,0.00
2019-04-20T01:18:10.716Z,0.00
2019-04-20T01:19:09.123Z,0.00
2019-04-20T01:20:08.117Z,0.00
2019-04-20T01:21:14.020Z,0.00
2019-04-20T01:22:13.603Z,0.00
2019-04-20T01:23:13.952Z,0.00
2019-04-20T01:24:14.762Z,0.00
2019-04-20T01:25:17.331Z,0.00
2019-04-20T01:26:13.065Z,0.00
2019-04-20T01:27:24.591Z,0.00
2019-04-20T01:28:27.833Z,0.00
2019-04-20T01:29:20.526Z,0.00
2019-04-20T01:30:19.013Z,0.00
2019-04-20T01:31:18.725Z,0.00
2019-04-20T01:32:20.962Z,0.00
2019-04-20T01:33:25.196Z,0.00
2019-04-20T01:34:26.674Z,0.00
2019-04-20T01:35:26.123Z,0.00
2019-04-20T01:36:25.386Z,0.00
2019-04-20T01:37:24.728Z,0.00
2019-04-20T01:38:26.681Z,0.00
2019-04-20T01:39:18.407Z,0.00
2019-04-20T01:40:09.938Z,0.00
2019-04-20T01:41:07.910Z,0.00
2019-04-20T01:42:08.674Z,0.00
2019-04-20T01:43:08.022Z,0.00
2019-04-20T01:44:09.078Z,0.00
2019-04-20T01:45:14.597Z,0.00
2019-04-20T01:46:15.100Z,0.00
2019-04-20T01:47:10.391Z,0.00
2019-04-20T01:48:08.281Z,0.00
2019-04-20T01:49:15.096Z,0.00
2019-04-20T01:50:15.351Z,0.00
2019-04-20T01:51:14.103Z,0.00
2019-04-20T01:52:16.966Z,0.00
2019-04-20T01:53:18.987Z,0.00
2019-04-20T01:54:23.465Z,0.00
2019-04-20T01:55:28.864Z,0.00
2019-04-20T01:56:23.106Z,0.00
2019-04-20T01:57:16.521Z,0.00
2019-04-20T01:58:31.398Z,0.00
2019-04-20T01:59:22.818Z,0.00
2019-04-20T02:00:14.453Z,0.00
2019-04-20T02:01:13.681Z,0.00
2019-04-20T02:02:13.156Z,0.00
2019-04-20T02:03:09.953Z,0.00
2019-04-20T02:04:17.166Z,0.00
2019-04-20T02:05:15.790Z,0.00
2019-04-20T02:06:14.515Z,0.00
2019-04-20T02:07:10.190Z,0.00
2019-04-20T02:08:12.922Z,0.00
2019-04-20T02:09:13.466Z,0.00
2019-04-20T02:10:11.664Z,0.00
2019-04-20T02:11:09.931Z,0.00
2019-04-20T02:12:15.453Z,0.00
2019-04-20T02:13:09.791Z,0.00
2019-04-20T02:14:10.362Z,0.00
2019-04-20T02:15:17.221Z,0.00
2019-04-20T02:16:16.883Z,0.00
2019-04-20T02:17:19.611Z,0.00
2019-04-20T02:18:23.133Z,0.00
2019-04-20T02:19:22.969Z,0.00
2019-04-20T02:20:31.908Z,0.00
2019-04-20T02:21:24.558Z,0.00
2019-04-20T02:22:22.731Z,0.00
2019-04-20T02:23:23.796Z,0.00
2019-04-20T02:24:10.926Z,0.00
2019-04-20T02:25:07.989Z,0.00
2019-04-20T02:26:07.410Z,0.00
2019-04-20T02:27:08.202Z,0.00
2019-04-20T02:28:22.916Z,0.00
2019-04-20T02:29:30.499Z,0.00
2019-04-20T02:30:42.553Z,0.00
2019-04-20T02:31:55.835Z,0.00
2019-04-20T02:32:36.634Z,0.00
2019-04-20T02:33:42.523Z,0.00
2019-04-20T02:34:47.769Z,0.00
2019-04-20T02:35:42.667Z,0.00
2019-04-20T02:36:53.173Z,0.00
2019-04-20T02:37:51.341Z,0.00
2019-04-20T02:39:05.174Z,0.00
2019-04-20T02:40:47.697Z,0.00
2019-04-20T02:42:44.696Z,0.00
2019-04-20T02:43:49.796Z,0.00
2019-04-20T02:44:49.994Z,0.00
2019-04-20T02:45:39.969Z,0.00
2019-04-20T02:46:44.187Z,0.00
2019-04-20T02:47:43.308Z,0.00
2019-04-20T02:48:45.425Z,0.00
2019-04-20T02:51:41.034Z,0.00
2019-04-20T02:53:51.424Z,0.00
2019-04-20T02:54:36.212Z,0.00
2019-04-20T02:55:41.833Z,0.00
2019-04-20T02:57:51.036Z,0.00
2019-04-20T02:58:41.993Z,0.00
2019-04-20T03:00:31.346Z,0.00
2019-04-20T03:01:27.777Z,0.00
2019-04-20T03:02:21.985Z,0.00
2019-04-20T03:03:20.074Z,0.00
2019-04-20T03:04:20.267Z,0.00
2019-04-20T03:05:22.989Z,0.00
2019-04-20T03:06:19.831Z,0.00
2019-04-20T03:07:23.221Z,0.00
2019-04-20T03:08:22.380Z,0.00
2019-04-20T03:09:35.300Z,0.00
2019-04-20T03:10:38.993Z,0.00
2019-04-20T03:11:44.279Z,0.00
2019-04-20T03:12:33.430Z,0.00
2019-04-20T03:13:27.071Z,0.00
2019-04-20T03:14:21.751Z,0.00
2019-04-20T03:15:36.396Z,0.00
2019-04-20T03:16:24.811Z,0.00
2019-04-20T03:17:33.436Z,0.00
2019-04-20T03:18:28.190Z,0.00
2019-04-20T03:19:25.109Z,0.00
2019-04-20T03:20:32.283Z,0.00
2019-04-20T03:21:33.345Z,0.00
2019-04-20T03:22:39.475Z,0.00
2019-04-20T03:23:35.877Z,0.00
2019-04-20T03:24:31.094Z,0.00
2019-04-20T03:25:30.084Z,0.00
2019-04-20T03:26:31.326Z,0.00
2019-04-20T03:27:28.158Z,0.00
2019-04-20T03:28:28.017Z,0.00
2019-04-20T03:29:24.163Z,0.00
2019-04-20T03:31:04.017Z,0.00
2019-04-20T03:34:02.989Z,0.00
2019-04-20T03:35:00.834Z,0.00
2019-04-20T03:35:50.917Z,0.00
2019-04-20T03:36:37.578Z,0.00
2019-04-20T03:37:30.588Z,0.00
2019-04-20T03:38:27.261Z,4.00
2019-04-20T03:39:23.323Z,4.00
2019-04-20T03:40:21.632Z,4.00
2019-04-20T03:41:18.312Z,0.00
2019-04-20T03:42:09.346Z,4.00
2019-04-20T03:43:07.643Z,4.00
2019-04-20T03:44:13.700Z,4.00
2019-04-20T03:45:13.143Z,4.00
2019-04-20T03:46:11.627Z,4.00
2019-04-20T03:47:11.760Z,8.00
2019-04-20T03:48:21.333Z,8.00
2019-04-20T03:49:35.243Z,8.00
2019-04-20T03:50:34.621Z,8.00
2019-04-20T03:51:37.117Z,12.00
2019-04-20T03:52:23.408Z,12.00
2019-04-20T03:53:27.853Z,12.00
2019-04-20T03:54:19.868Z,16.00
2019-04-20T03:55:26.591Z,20.00
2019-04-20T03:56:27.993Z,20.00
2019-04-20T03:57:27.681Z,24.00
2019-04-20T03:58:24.256Z,28.00
2019-04-20T03:59:21.246Z,24.00
2019-04-20T04:00:26.953Z,28.00
2019-04-20T04:01:44.139Z,36.00
2019-04-20T04:02:37.848Z,40.00
2019-04-20T04:03:35.044Z,40.00
2019-04-20T04:04:27.596Z,44.00
2019-04-20T04:05:26.258Z,48.00
2019-04-20T04:06:17.860Z,52.00
2019-04-20T04:07:18.457Z,56.00
2019-04-20T04:08:16.984Z,60.00
2019-04-20T04:09:22.641Z,64.00
2019-04-20T04:10:23.224Z,68.00
2019-04-20T04:11:26.233Z,72.00
2019-04-20T04:12:18.745Z,76.00
2019-04-20T04:13:09.627Z,80.00
2019-04-20T04:14:07.140Z,88.00
2019-04-20T04:15:06.553Z,92.00
2019-04-20T04:16:10.157Z,96.00
2019-04-20T04:17:07.420Z,104.00
2019-04-20T04:18:13.892Z,108.00
2019-04-20T04:19:17.679Z,116.00
2019-04-20T04:20:12.832Z,116.00
2019-04-20T04:21:11.447Z,120.00
2019-04-20T04:22:19.349Z,128.00
2019-04-20T04:23:22.160Z,136.00
2019-04-20T04:24:22.604Z,140.00
2019-04-20T04:25:15.933Z,144.00
2019-04-20T04:26:29.210Z,152.00
2019-04-20T04:27:24.443Z,156.00
2019-04-20T04:28:27.621Z,160.00
2019-04-20T04:29:32.551Z,168.00
2019-04-20T04:30:23.237Z,172.00
2019-04-20T04:31:28.125Z,180.00
2019-04-20T04:32:47.967Z,184.00
2019-04-20T04:33:47.465Z,192.00
2019-04-20T04:34:25.027Z,196.00
2019-04-20T04:35:20.151Z,200.00
2019-04-20T04:36:21.151Z,204.00
2019-04-20T04:37:28.941Z,208.00
2019-04-20T04:38:32.762Z,216.00
2019-04-20T04:39:31.245Z,220.00
2019-04-20T04:40:31.816Z,224.00
2019-04-20T04:41:27.014Z,232.00
2019-04-20T04:42:27.960Z,236.00
2019-04-20T04:43:27.770Z,240.00
2019-04-20T04:44:19.267Z,244.00
2019-04-20T04:45:12.104Z,248.00
2019-04-20T04:46:07.925Z,252.00
2019-04-20T04:47:08.711Z,256.00
2019-04-20T04:48:13.249Z,260.00
2019-04-20T04:49:16.480Z,268.00
2019-04-20T04:50:13.069Z,272.00
2019-04-20T04:51:14.887Z,272.00
2019-04-20T04:52:12.662Z,280.00
2019-04-20T04:53:20.643Z,280.00
2019-04-20T04:54:16.313Z,284.00
2019-04-20T04:55:22.075Z,288.00
2019-04-20T04:56:11.697Z,292.00
2019-04-20T04:57:07.387Z,296.00
2019-04-20T04:58:06.456Z,300.00
2019-04-20T04:59:06.474Z,300.00
2019-04-20T05:00:09.207Z,308.00
2019-04-20T05:01:13.891Z,312.00
2019-04-20T05:02:07.653Z,312.00
2019-04-20T05:03:23.155Z,316.00
2019-04-20T05:04:25.136Z,316.00
2019-04-20T05:05:31.173Z,324.00
2019-04-20T05:06:21.983Z,324.00
2019-04-20T05:07:22.337Z,328.00
2019-04-20T05:08:17.407Z,332.00
2019-04-20T05:09:10.658Z,332.00
2019-04-20T05:10:07.700Z,336.00
2019-04-20T05:11:06.950Z,340.00
2019-04-20T05:12:12.695Z,344.00
2019-04-20T05:13:07.118Z,344.00
2019-04-20T05:14:10.065Z,348.00
2019-04-20T05:15:15.258Z,352.00
2019-04-20T05:16:21.695Z,352.00
2019-04-20T05:17:23.301Z,356.00
2019-04-20T05:18:35.769Z,360.00
2019-04-20T05:19:29.438Z,364.00
2019-04-20T05:20:25.705Z,364.00
2019-04-20T05:21:28.246Z,364.00
2019-04-20T05:22:24.745Z,368.00
2019-04-20T05:23:22.029Z,372.00
2019-04-20T05:24:22.643Z,376.00
2019-04-20T05:25:26.389Z,376.00
2019-04-20T05:26:25.910Z,380.00
2019-04-20T05:27:26.047Z,380.00
2019-04-20T05:28:20.817Z,384.00
2019-04-20T05:29:14.284Z,384.00
2019-04-20T05:30:07.684Z,388.00
2019-04-20T05:31:08.030Z,392.00
2019-04-20T05:32:11.487Z,396.00
2019-04-20T05:33:11.638Z,392.00
2019-04-20T05:34:25.476Z,392.00
2019-04-20T05:35:27.011Z,396.00
2019-04-20T05:36:23.437Z,396.00
2019-04-20T05:37:37.165Z,404.00
2019-04-20T05:38:32.130Z,404.00
2019-04-20T05:40:27.408Z,404.00
2019-04-20T05:41:24.043Z,404.00
2019-04-20T05:42:33.901Z,408.00
2019-04-20T05:43:24.317Z,408.00
2019-04-20T05:44:22.098Z,408.00
2019-04-20T05:45:21.832Z,412.00
2019-04-20T05:46:26.190Z,412.00
2019-04-20T05:47:29.179Z,412.00
2019-04-20T05:48:21.953Z,416.00
2019-04-20T05:49:28.048Z,416.00
2019-04-20T05:50:29.301Z,416.00
2019-04-20T05:51:29.825Z,416.00
2019-04-20T05:52:35.113Z,416.00
2019-04-20T05:53:30.483Z,420.00
2019-04-20T05:54:26.947Z,420.00
2019-04-20T05:55:26.698Z,424.00
2019-04-20T05:56:30.663Z,420.00
2019-04-20T05:57:30.329Z,424.00
2019-04-20T05:58:29.187Z,424.00
2019-04-20T05:59:28.396Z,424.00
2019-04-20T06:00:26.524Z,424.00
2019-04-20T06:01:26.919Z,428.00
2019-04-20T06:02:29.447Z,428.00
2019-04-20T06:03:28.996Z,428.00
2019-04-20T06:04:39.969Z,428.00
2019-04-20T06:05:28.841Z,428.00
2019-04-20T06:06:27.826Z,432.00
2019-04-20T06:08:41.690Z,432.00
2019-04-20T06:09:28.368Z,436.00
2019-04-20T06:10:31.811Z,436.00
2019-04-20T06:11:25.742Z,436.00
2019-04-20T06:12:32.059Z,440.00
2019-04-20T06:13:17.372Z,440.00
2019-04-20T06:14:15.177Z,440.00
2019-04-20T06:15:22.403Z,444.00
2019-04-20T06:16:24.750Z,444.00
2019-04-20T06:17:26.568Z,448.00
2019-04-20T06:18:21.136Z,444.00
2019-04-20T06:19:31.984Z,448.00
2019-04-20T06:20:28.408Z,448.00
2019-04-20T06:21:34.034Z,448.00
2019-04-20T06:22:30.801Z,452.00
2019-04-20T06:23:34.614Z,448.00
2019-04-20T06:24:36.329Z,452.00
2019-04-20T06:26:36.933Z,452.00
2019-04-20T06:27:30.852Z,452.00
2019-04-20T06:28:22.182Z,456.00
2019-04-20T06:29:21.936Z,456.00
2019-04-20T06:30:19.218Z,456.00
2019-04-20T06:31:40.949Z,456.00
2019-04-20T06:32:33.692Z,460.00
2019-04-20T06:33:52.163Z,460.00
2019-04-20T06:35:42.961Z,460.00
2019-04-20T06:36:32.168Z,464.00
2019-04-20T06:37:25.797Z,464.00
2019-04-20T06:38:46.557Z,464.00
2019-04-20T06:39:30.873Z,464.00
2019-04-20T06:40:52.860Z,468.00
2019-04-20T06:41:45.559Z,468.00
2019-04-20T06:42:23.702Z,464.00
2019-04-20T06:43:34.927Z,468.00
2019-04-20T06:44:32.202Z,468.00
2019-04-20T06:45:36.407Z,468.00
2019-04-20T06:46:29.298Z,472.00
2019-04-20T06:47:31.068Z,468.00
2019-04-20T06:48:35.829Z,472.00
2019-04-20T06:49:33.403Z,472.00
2019-04-20T06:50:24.589Z,472.00
2019-04-20T06:51:29.870Z,476.00
2019-04-20T06:53:32.432Z,476.00
2019-04-20T06:54:15.916Z,480.00
2019-04-20T06:55:28.950Z,484.00
2019-04-20T06:56:29.489Z,480.00
2019-04-20T06:57:27.151Z,484.00
2019-04-20T06:58:40.685Z,488.00
2019-04-20T06:59:31.770Z,492.00
2019-04-20T07:00:22.912Z,492.00
2019-04-20T07:01:25.120Z,492.00
2019-04-20T07:02:29.941Z,492.00
2019-04-20T07:03:36.714Z,488.00
2019-04-20T07:05:43.939Z,500.00
2019-04-20T07:06:48.366Z,504.00
2019-04-20T07:07:27.632Z,504.00
2019-04-20T07:08:42.405Z,504.00
2019-04-20T07:09:34.951Z,508.00
2019-04-20T07:10:43.912Z,508.00
2019-04-20T07:11:30.775Z,508.00
2019-04-20T07:12:23.026Z,508.00
2019-04-20T07:13:20.362Z,508.00
2019-04-20T07:14:13.439Z,508.00
2019-04-20T07:15:22.822Z,504.00
2019-04-20T07:16:28.305Z,508.00
2019-04-20T07:18:31.330Z,520.00
2019-04-20T07:19:23.069Z,524.00
2019-04-20T07:20:26.128Z,528.00
2019-04-20T07:21:37.337Z,528.00
2019-04-20T07:22:33.785Z,532.00
2019-04-20T07:23:31.193Z,540.00
2019-04-20T07:24:30.832Z,536.00
2019-04-20T07:25:24.458Z,540.00
2019-04-20T07:26:29.185Z,544.00
2019-04-20T07:27:26.210Z,544.00
2019-04-20T07:28:32.775Z,548.00
2019-04-20T07:29:30.115Z,548.00
2019-04-20T07:30:21.622Z,556.00
2019-04-20T07:31:24.657Z,556.00
2019-04-20T07:32:17.826Z,552.00
2019-04-20T07:33:30.337Z,560.00
2019-04-20T07:34:29.055Z,564.00
2019-04-20T07:35:24.787Z,568.00
2019-04-20T07:36:32.452Z,572.00
2019-04-20T07:37:51.378Z,572.00
2019-04-20T07:39:28.069Z,580.00
2019-04-20T07:40:26.938Z,588.00
2019-04-20T07:41:35.767Z,588.00
2019-04-20T07:42:29.405Z,592.00
2019-04-20T07:43:28.344Z,596.00
2019-04-20T07:44:35.929Z,596.00
2019-04-20T07:45:30.830Z,588.00
2019-04-20T07:46:42.481Z,604.00
2019-04-20T07:47:34.510Z,608.00
2019-04-20T07:48:27.820Z,612.00
2019-04-20T07:49:27.105Z,612.00
2019-04-20T07:50:21.280Z,616.00
2019-04-20T07:51:13.716Z,620.00
2019-04-20T07:52:06.211Z,628.00
2019-04-20T07:53:24.568Z,632.00
2019-04-20T07:54:30.348Z,632.00
2019-04-20T07:55:42.234Z,636.00
2019-04-20T07:56:32.611Z,640.00
2019-04-20T07:57:24.659Z,644.00
2019-04-20T07:58:18.209Z,644.00
2019-04-20T07:59:17.828Z,652.00
2019-04-20T08:00:35.539Z,700.00
2019-04-20T08:01:30.166Z,652.00
2019-04-20T08:02:32.059Z,652.00
2019-04-20T08:03:35.279Z,660.00
2019-04-20T08:04:24.506Z,660.00
2019-04-20T08:05:21.924Z,656.00
2019-04-20T08:06:11.559Z,652.00
2019-04-20T08:07:09.153Z,644.00
2019-04-20T08:08:23.869Z,648.00
2019-04-20T08:09:20.807Z,644.00
2019-04-20T08:10:09.989Z,632.00
2019-04-20T08:11:24.034Z,640.00
2019-04-20T08:12:33.965Z,644.00
2019-04-20T08:13:32.574Z,644.00
2019-04-20T08:14:30.662Z,644.00
2019-04-20T08:15:38.099Z,648.00
2019-04-20T08:16:32.972Z,644.00
2019-04-20T08:17:31.193Z,648.00
2019-04-20T08:18:27.409Z,648.00
2019-04-20T08:20:25.694Z,652.00
2019-04-20T08:21:32.865Z,656.00
2019-04-20T08:22:26.817Z,660.00
2019-04-20T08:23:17.587Z,664.00
2019-04-20T08:24:21.477Z,660.00
2019-04-20T08:25:16.736Z,660.00
2019-04-20T08:26:14.176Z,660.00
2019-04-20T08:27:09.158Z,652.00
2019-04-20T08:28:06.324Z,660.00
2019-04-20T08:29:19.047Z,664.00
2019-04-20T08:30:28.156Z,660.00
2019-04-20T08:31:18.225Z,652.00
2019-04-20T08:32:24.072Z,652.00
2019-04-20T08:33:29.914Z,656.00
2019-04-20T08:34:31.210Z,664.00
2019-04-20T08:35:26.896Z,660.00
2019-04-20T08:36:27.253Z,660.00
2019-04-20T08:37:20.768Z,668.00
2019-04-20T08:39:37.655Z,672.00
2019-04-20T08:40:25.528Z,680.00
2019-04-20T08:41:22.823Z,680.00
2019-04-20T08:42:22.545Z,684.00
2019-04-20T08:43:38.370Z,692.00
2019-04-20T08:45:31.632Z,712.00
2019-04-20T08:46:26.488Z,716.00
2019-04-20T08:47:32.223Z,716.00
2019-04-20T08:48:31.424Z,720.00
2019-04-20T08:49:29.687Z,732.00
2019-04-20T08:50:22.480Z,736.00
2019-04-20T08:51:25.920Z,744.00
2019-04-20T08:52:47.077Z,748.00
2019-04-20T08:53:28.106Z,752.00
2019-04-20T08:54:23.369Z,752.00
2019-04-20T08:55:23.785Z,756.00
2019-04-20T08:56:18.808Z,752.00
2019-04-20T08:57:04.990Z,760.00
2019-04-20T08:58:04.444Z,756.00
2019-04-20T08:59:03.935Z,756.00
2019-04-20T09:00:05.173Z,756.00
2019-04-20T09:01:06.949Z,752.00
2019-04-20T09:02:08.999Z,744.00
2019-04-20T09:03:13.724Z,740.00
2019-04-20T09:04:12.489Z,744.00
2019-04-20T09:05:13.069Z,740.00
2019-04-20T09:06:19.332Z,736.00
2019-04-20T09:07:11.546Z,728.00
2019-04-20T09:08:14.405Z,728.00
2019-04-20T09:09:33.495Z,728.00
2019-04-20T09:10:28.296Z,740.00
2019-04-20T09:11:19.687Z,744.00
2019-04-20T09:12:21.146Z,752.00
2019-04-20T09:13:11.656Z,752.00
2019-04-20T09:14:05.914Z,768.00
2019-04-20T09:15:03.801Z,776.00
2019-04-20T09:16:04.249Z,784.00
2019-04-20T09:17:08.915Z,804.00
2019-04-20T09:18:13.485Z,812.00
2019-04-20T09:19:09.369Z,816.00
2019-04-20T09:20:11.989Z,832.00
2019-04-20T09:21:15.470Z,840.00
2019-04-20T09:22:18.791Z,840.00
2019-04-20T09:23:23.850Z,844.00
2019-04-20T09:24:29.882Z,840.00
2019-04-20T09:25:43.182Z,844.00
2019-04-20T09:26:20.794Z,844.00
2019-04-20T09:27:18.128Z,848.00
2019-04-20T09:28:11.709Z,852.00
2019-04-20T09:29:18.461Z,852.00
2019-04-20T09:30:20.491Z,856.00
2019-04-20T09:31:28.252Z,852.00
2019-04-20T09:32:26.295Z,848.00
2019-04-20T09:33:23.524Z,840.00
2019-04-20T09:34:20.392Z,836.00
2019-04-20T09:35:26.077Z,832.00
2019-04-20T09:36:17.889Z,836.00
2019-04-20T09:37:41.425Z,804.00
2019-04-20T09:38:21.705Z,788.00
2019-04-20T09:39:16.498Z,724.00
2019-04-20T09:40:20.238Z,712.00
2019-04-20T09:41:26.369Z,680.00
2019-04-20T09:42:03.841Z,684.00
2019-04-20T09:43:02.842Z,700.00
2019-04-20T09:44:02.813Z,708.00
2019-04-20T09:45:04.926Z,716.00
2019-04-20T09:46:06.828Z,724.00
2019-04-20T09:47:06.470Z,728.00
2019-04-20T09:48:06.772Z,744.00
2019-04-20T09:49:16.800Z,760.00
2019-04-20T09:50:24.748Z,764.00
2019-04-20T09:51:24.775Z,784.00
2019-04-20T09:52:17.047Z,800.00
2019-04-20T09:53:20.883Z,816.00
2019-04-20T09:54:22.973Z,832.00
2019-04-20T09:55:18.523Z,848.00
2019-04-20T09:56:20.828Z,860.00
2019-04-20T09:57:26.859Z,884.00
2019-04-20T09:58:15.754Z,896.00
2019-04-20T09:59:27.024Z,908.00
2019-04-20T10:00:20.881Z,920.00
2019-04-20T10:01:15.627Z,936.00
2019-04-20T10:02:10.254Z,956.00
2019-04-20T10:03:04.387Z,980.00
2019-04-20T10:04:03.463Z,996.00
2019-04-20T10:05:02.602Z,1004.00
2019-04-20T10:06:03.415Z,1008.00
2019-04-20T10:07:09.307Z,1024.00
2019-04-20T10:08:07.957Z,1016.00
2019-04-20T10:09:05.120Z,1020.00
2019-04-20T10:10:15.851Z,1024.00
2019-04-20T10:11:03.609Z,1024.00
2019-04-20T10:12:03.733Z,1004.00
2019-04-20T10:13:02.565Z,1008.00
2019-04-20T10:14:02.499Z,1012.00
2019-04-20T10:15:11.661Z,1016.00
2019-04-20T10:16:03.847Z,1012.00
2019-04-20T10:17:02.474Z,1004.00
2019-04-20T10:18:03.626Z,996.00
2019-04-20T10:19:02.808Z,1004.00
2019-04-20T10:20:09.577Z,1020.00
2019-04-20T10:21:03.469Z,1016.00
2019-04-20T10:22:02.576Z,1024.00
2019-04-20T10:23:02.669Z,1024.00
2019-04-20T10:24:02.859Z,1028.00
2019-04-20T10:25:02.722Z,1012.00
2019-04-20T10:26:02.618Z,1004.00
2019-04-20T10:27:02.992Z,984.00
2019-04-20T10:28:03.361Z,980.00
2019-04-20T10:29:03.547Z,968.00
2019-04-20T10:30:04.720Z,960.00
2019-04-20T10:31:02.394Z,948.00
2019-04-20T10:32:06.974Z,932.00
2019-04-20T10:33:03.623Z,924.00
2019-04-20T10:34:02.286Z,912.00
2019-04-20T10:35:02.547Z,904.00
2019-04-20T10:36:03.486Z,908.00
2019-04-20T10:37:02.256Z,912.00
2019-04-20T10:38:03.252Z,916.00
2019-04-20T10:39:02.443Z,932.00
2019-04-20T10:40:02.865Z,944.00
2019-04-20T10:41:11.292Z,964.00
2019-04-20T10:42:04.347Z,980.00
2019-04-20T10:43:03.135Z,996.00
2019-04-20T10:44:02.874Z,1000.00
2019-04-20T10:45:03.041Z,984.00
2019-04-20T10:46:02.719Z,956.00
2019-04-20T10:47:02.955Z,908.00
2019-04-20T10:48:03.367Z,912.00
2019-04-20T10:49:04.306Z,904.00
2019-04-20T10:50:03.112Z,940.00
2019-04-20T10:51:03.126Z,932.00
2019-04-20T10:52:02.243Z,928.00
2019-04-20T10:53:02.091Z,936.00
2019-04-20T10:54:02.497Z,936.00
2019-04-20T10:55:02.904Z,968.00
2019-04-20T10:56:03.457Z,1008.00
2019-04-20T10:57:02.050Z,1032.00
2019-04-20T10:58:02.034Z,1040.00
2019-04-20T10:59:03.378Z,1072.00
2019-04-20T11:00:02.019Z,1080.00
2019-04-20T11:01:02.025Z,1076.00
2019-04-20T11:02:01.996Z,1048.00
2019-04-20T11:03:01.985Z,1024.00
2019-04-20T11:04:03.024Z,1004.00
2019-04-20T11:05:02.595Z,1000.00
2019-04-20T11:06:02.709Z,980.00
2019-04-20T11:07:02.838Z,968.00
2019-04-20T11:08:02.260Z,964.00
2019-04-20T11:09:02.548Z,972.00
2019-04-20T11:10:11.118Z,976.00
2019-04-20T11:11:13.011Z,988.00
2019-04-20T11:12:04.096Z,988.00
2019-04-20T11:13:03.203Z,988.00
2019-04-20T11:14:11.488Z,988.00
2019-04-20T11:15:03.855Z,988.00
2019-04-20T11:16:02.208Z,992.00
2019-04-20T11:17:02.568Z,1004.00
2019-04-20T11:18:01.832Z,1016.00
2019-04-20T11:19:03.158Z,1024.00
2019-04-20T11:20:01.813Z,1032.00
2019-04-20T11:21:01.817Z,1036.00
2019-04-20T11:22:02.175Z,1052.00
2019-04-20T11:23:02.327Z,1072.00
2019-04-20T11:24:02.512Z,1104.00
2019-04-20T11:25:02.152Z,1140.00
2019-04-20T11:26:02.210Z,1180.00
2019-04-20T11:27:02.392Z,1224.00
2019-04-20T11:28:01.892Z,1264.00
2019-04-20T11:29:02.181Z,1300.00
2019-04-20T11:30:02.489Z,1332.00
2019-04-20T11:31:01.947Z,1336.00
2019-04-20T11:32:03.020Z,1332.00
2019-04-20T11:33:02.301Z,1324.00
2019-04-20T11:34:01.663Z,1320.00
2019-04-20T11:35:11.092Z,1308.00
2019-04-20T11:36:03.235Z,1260.00
2019-04-20T11:37:01.628Z,1304.00
2019-04-20T11:38:02.843Z,1292.00
2019-04-20T11:39:02.932Z,1296.00
2019-04-20T11:40:01.659Z,1260.00
2019-04-20T11:41:11.305Z,1180.00
2019-04-20T11:42:03.666Z,1188.00
2019-04-20T11:43:01.737Z,1184.00
2019-04-20T11:44:01.963Z,1184.00
2019-04-20T11:45:02.762Z,1156.00
2019-04-20T11:46:02.776Z,1140.00
2019-04-20T11:47:02.794Z,1128.00
2019-04-20T11:48:01.512Z,1128.00
2019-04-20T11:49:01.504Z,1136.00
2019-04-20T11:50:03.679Z,1120.00
2019-04-20T11:51:01.485Z,1108.00
2019-04-20T11:52:01.569Z,1136.00
2019-04-20T11:53:01.586Z,1160.00
2019-04-20T11:54:01.453Z,1160.00
2019-04-20T11:55:02.442Z,1180.00
2019-04-20T11:56:02.569Z,1204.00
2019-04-20T11:57:01.643Z,1216.00
2019-04-20T11:58:01.721Z,1244.00
2019-04-20T11:59:02.959Z,1252.00
2019-04-20T12:00:01.394Z,1260.00
2019-04-20T12:01:08.522Z,1272.00
2019-04-20T12:02:05.495Z,1268.00
2019-04-20T12:03:10.930Z,1264.00
2019-04-20T12:04:16.939Z,1256.00
2019-04-20T12:05:16.701Z,1252.00
2019-04-20T12:06:05.317Z,1236.00
2019-04-20T12:07:02.321Z,1220.00
2019-04-20T12:08:02.866Z,1196.00
2019-04-20T12:09:01.304Z,1200.00
2019-04-20T12:10:09.064Z,1180.00
2019-04-20T12:11:18.766Z,1176.00
2019-04-20T12:12:15.644Z,1152.00
2019-04-20T12:13:03.690Z,1128.00
2019-04-20T12:14:02.685Z,1108.00
2019-04-20T12:15:01.238Z,1132.00
2019-04-20T12:16:01.603Z,1140.00
2019-04-20T12:17:01.776Z,1144.00
2019-04-20T12:18:01.951Z,1136.00
2019-04-20T12:19:02.230Z,1160.00
2019-04-20T12:20:01.748Z,1176.00
2019-04-20T12:21:01.285Z,1192.00
2019-04-20T12:22:01.319Z,1208.00
2019-04-20T12:23:02.216Z,1224.00
2019-04-20T12:24:02.398Z,1232.00
2019-04-20T12:25:02.462Z,1252.00
2019-04-20T12:26:02.034Z,1264.00
2019-04-20T12:27:01.113Z,1284.00
2019-04-20T12:28:02.354Z,1296.00
2019-04-20T12:29:01.409Z,1308.00
2019-04-20T12:30:01.799Z,1324.00
2019-04-20T12:31:04.129Z,1332.00
2019-04-20T12:32:05.497Z,1344.00
2019-04-20T12:33:02.194Z,1348.00
2019-04-20T12:34:02.274Z,1348.00
2019-04-20T12:35:02.566Z,1352.00
2019-04-20T12:36:02.553Z,1352.00
2019-04-20T12:37:01.054Z,1348.00
2019-04-20T12:38:01.402Z,1344.00
2019-04-20T12:39:01.208Z,1336.00
2019-04-20T12:40:00.982Z,1336.00
2019-04-20T12:41:04.223Z,1316.00
2019-04-20T12:42:05.675Z,1312.00
2019-04-20T12:43:01.967Z,1280.00
2019-04-20T12:44:01.749Z,1340.00
2019-04-20T12:45:01.740Z,1356.00
2019-04-20T12:46:02.216Z,1364.00
2019-04-20T12:47:01.587Z,1356.00
2019-04-20T12:48:01.771Z,1360.00
2019-04-20T12:49:01.856Z,1328.00
2019-04-20T12:50:01.418Z,1332.00
2019-04-20T12:51:01.595Z,1408.00
2019-04-20T12:52:04.397Z,1512.00
2019-04-20T12:53:04.450Z,1556.00
2019-04-20T12:54:00.895Z,1560.00
2019-04-20T12:55:02.827Z,1536.00
2019-04-20T12:56:02.196Z,1528.00
2019-04-20T12:57:00.807Z,1512.00
2019-04-20T12:58:00.812Z,1472.00